DLH1317 DAAG-EDDF
Flight info
| Callsign | DLH1317 |
|---|---|
| Flight time | N/A |
| Altitude | 38000 |
| Route | OTARO1B OTARO DCT RISEP DCT LUNOR DCT ZETCO DCT LERMA DCT PIGOS DCT EKSID DCT NOSTA DCT NOPMU DCT ABESI DCT LADOL T163 EMPAX EMPAX5B |
| Aircraft | A320/M-SDE2E3FGIJ1LORWXYZ/HB1 |
Departure
| Time | 2026-05-07 11:50 |
|---|---|
| Airport | Houari Boumediene Airport (DAAG) |
Arrival
| Time | N/A |
|---|---|
| Airport | Frankfurt Main Airport (EDDF) |
| Time | Latitude | Longitude | Altitude | Speed | Heading |
|---|---|---|---|---|---|
| 2026-05-07 11:30 | 36.69797 | 3.20284 | 70 ft | 0 kts | 270° |
| 2026-05-07 11:40 | 36.69797 | 3.20285 | 70 ft | 1 kts | 270° |
| 2026-05-07 11:40 | 36.69798 | 3.20316 | 67 ft | 4 kts | 255° |
| 2026-05-07 11:40 | 36.69809 | 3.20343 | 64 ft | 4 kts | 213° |
| 2026-05-07 11:40 | 36.69822 | 3.20350 | 60 ft | 0 kts | 179° |
| 2026-05-07 11:43 | 36.69819 | 3.20350 | 60 ft | 2 kts | 179° |
| 2026-05-07 11:44 | 36.69797 | 3.20350 | 62 ft | 6 kts | 179° |
| 2026-05-07 11:44 | 36.69734 | 3.20363 | 62 ft | 11 kts | 167° |
| 2026-05-07 11:44 | 36.69650 | 3.20371 | 70 ft | 13 kts | 182° |
| 2026-05-07 11:44 | 36.69554 | 3.20368 | 70 ft | 15 kts | 182° |
| 2026-05-07 11:45 | 36.69456 | 3.20343 | 67 ft | 15 kts | 224° |
| 2026-05-07 11:45 | 36.69370 | 3.20290 | 67 ft | 15 kts | 182° |
| 2026-05-07 11:45 | 36.69297 | 3.20333 | 65 ft | 12 kts | 105° |
| 2026-05-07 11:45 | 36.69295 | 3.20430 | 67 ft | 11 kts | 91° |
| 2026-05-07 11:46 | 36.69293 | 3.20515 | 67 ft | 9 kts | 91° |
| 2026-05-07 11:46 | 36.69291 | 3.20588 | 66 ft | 8 kts | 92° |
| 2026-05-07 11:46 | 36.69290 | 3.20649 | 66 ft | 6 kts | 91° |
| 2026-05-07 11:46 | 36.69288 | 3.20712 | 71 ft | 10 kts | 92° |
| 2026-05-07 11:47 | 36.69286 | 3.20816 | 71 ft | 13 kts | 91° |
| 2026-05-07 11:47 | 36.69271 | 3.20917 | 69 ft | 11 kts | 123° |
| 2026-05-07 11:47 | 36.69210 | 3.20955 | 68 ft | 9 kts | 161° |
| 2026-05-07 11:47 | 36.69169 | 3.20973 | 69 ft | 4 kts | 161° |
| 2026-05-07 11:48 | 36.69150 | 3.20977 | 73 ft | 2 kts | 170° |
| 2026-05-07 11:48 | 36.69146 | 3.20978 | 75 ft | 1 kts | 170° |
| 2026-05-07 11:48 | 36.69121 | 3.20981 | 75 ft | 5 kts | 183° |
| 2026-05-07 11:48 | 36.69114 | 3.20962 | 68 ft | 2 kts | 266° |
| 2026-05-07 11:49 | 36.69114 | 3.20957 | 70 ft | 0 kts | 270° |
| 2026-05-07 11:50 | 36.69115 | 3.20862 | 76 ft | 41 kts | 271° |
| 2026-05-07 11:50 | 36.69132 | 3.20178 | 74 ft | 113 kts | 272° |
| 2026-05-07 11:50 | 36.69162 | 3.18955 | 114 ft | 163 kts | 271° |
| 2026-05-07 11:50 | 36.69207 | 3.17554 | 824 ft | 161 kts | 272° |
| 2026-05-07 11:51 | 36.69254 | 3.16157 | 1517 ft | 165 kts | 272° |
| 2026-05-07 11:51 | 36.69447 | 3.14654 | 1880 ft | 188 kts | 288° |
| 2026-05-07 11:51 | 36.70044 | 3.13097 | 2207 ft | 213 kts | 304° |
| 2026-05-07 11:51 | 36.71121 | 3.11696 | 2614 ft | 238 kts | 323° |
| 2026-05-07 11:52 | 36.72680 | 3.10743 | 3068 ft | 262 kts | 345° |
| 2026-05-07 11:52 | 36.74533 | 3.10595 | 3833 ft | 273 kts | 8° |
| 2026-05-07 11:52 | 36.76329 | 3.11357 | 4751 ft | 276 kts | 32° |
| 2026-05-07 11:52 | 36.77776 | 3.12926 | 5682 ft | 278 kts | 49° |
| 2026-05-07 11:53 | 36.79072 | 3.14737 | 6631 ft | 281 kts | 49° |
| 2026-05-07 11:53 | 36.80376 | 3.16575 | 7519 ft | 285 kts | 50° |
| 2026-05-07 11:53 | 36.81694 | 3.18434 | 8426 ft | 287 kts | 50° |
| 2026-05-07 11:53 | 36.83028 | 3.20309 | 9328 ft | 291 kts | 50° |
| 2026-05-07 11:54 | 36.84381 | 3.22208 | 10143 ft | 296 kts | 49° |
| 2026-05-07 11:54 | 36.86037 | 3.23895 | 10443 ft | 322 kts | 29° |
| 2026-05-07 11:54 | 36.88121 | 3.25099 | 10920 ft | 336 kts | 24° |
| 2026-05-07 11:54 | 36.90281 | 3.26296 | 11621 ft | 343 kts | 24° |
| 2026-05-07 11:55 | 36.92476 | 3.27509 | 12343 ft | 349 kts | 23° |
| 2026-05-07 11:55 | 36.94719 | 3.28749 | 13078 ft | 355 kts | 23° |
| 2026-05-07 11:55 | 36.96994 | 3.30009 | 13798 ft | 360 kts | 24° |
| 2026-05-07 11:55 | 36.99301 | 3.31287 | 14425 ft | 366 kts | 23° |
| 2026-05-07 11:56 | 37.01642 | 3.32584 | 15043 ft | 371 kts | 23° |
| 2026-05-07 11:56 | 37.04019 | 3.33904 | 15662 ft | 376 kts | 22° |
| 2026-05-07 11:56 | 37.06432 | 3.35244 | 16282 ft | 382 kts | 22° |
| 2026-05-07 11:56 | 37.08876 | 3.36602 | 16882 ft | 387 kts | 22° |
| 2026-05-07 11:57 | 37.11318 | 3.37964 | 17482 ft | 392 kts | 21° |
| 2026-05-07 11:57 | 37.13830 | 3.39367 | 18083 ft | 398 kts | 21° |
| 2026-05-07 11:57 | 37.16373 | 3.40791 | 18612 ft | 403 kts | 22° |
| 2026-05-07 11:57 | 37.18913 | 3.42326 | 19153 ft | 408 kts | 25° |
| 2026-05-07 11:58 | 37.21433 | 3.43986 | 19732 ft | 411 kts | 26° |
| 2026-05-07 11:58 | 37.23948 | 3.45728 | 20274 ft | 415 kts | 27° |
| 2026-05-07 11:58 | 37.26480 | 3.47513 | 20804 ft | 420 kts | 27° |
| 2026-05-07 11:58 | 37.29041 | 3.49314 | 21323 ft | 424 kts | 27° |
| 2026-05-07 11:59 | 37.31637 | 3.51116 | 21843 ft | 429 kts | 27° |
| 2026-05-07 11:59 | 37.34269 | 3.52919 | 22356 ft | 433 kts | 26° |
| 2026-05-07 11:59 | 37.36934 | 3.54727 | 22870 ft | 438 kts | 26° |
| 2026-05-07 11:59 | 37.39634 | 3.56551 | 23387 ft | 442 kts | 26° |
| 2026-05-07 12:00 | 37.42356 | 3.58391 | 23835 ft | 446 kts | 27° |
| 2026-05-07 12:00 | 37.45091 | 3.60246 | 24363 ft | 446 kts | 27° |
| 2026-05-07 12:00 | 37.47827 | 3.62111 | 24844 ft | 448 kts | 27° |
| 2026-05-07 12:00 | 37.50575 | 3.63992 | 25275 ft | 451 kts | 27° |
| 2026-05-07 12:01 | 37.53342 | 3.65889 | 25691 ft | 454 kts | 28° |
| 2026-05-07 12:01 | 37.56128 | 3.67798 | 26099 ft | 457 kts | 28° |
| 2026-05-07 12:01 | 37.58932 | 3.69717 | 26485 ft | 460 kts | 28° |
| 2026-05-07 12:01 | 37.61755 | 3.71652 | 26880 ft | 463 kts | 28° |
| 2026-05-07 12:02 | 37.64599 | 3.73598 | 27257 ft | 466 kts | 28° |
| 2026-05-07 12:02 | 37.67461 | 3.75559 | 27616 ft | 471 kts | 28° |
| 2026-05-07 12:02 | 37.70350 | 3.77545 | 27940 ft | 475 kts | 28° |
| 2026-05-07 12:02 | 37.73260 | 3.79549 | 28284 ft | 478 kts | 28° |
| 2026-05-07 12:03 | 37.76189 | 3.81567 | 28630 ft | 481 kts | 28° |
| 2026-05-07 12:03 | 37.79133 | 3.83594 | 29011 ft | 483 kts | 28° |
| 2026-05-07 12:03 | 37.82091 | 3.85632 | 29366 ft | 486 kts | 28° |
| 2026-05-07 12:03 | 37.85066 | 3.87683 | 29718 ft | 488 kts | 28° |
| 2026-05-07 12:04 | 37.88055 | 3.89745 | 30033 ft | 491 kts | 28° |
| 2026-05-07 12:04 | 37.91066 | 3.91824 | 30263 ft | 496 kts | 27° |
| 2026-05-07 12:04 | 37.94106 | 3.93923 | 30467 ft | 500 kts | 27° |
| 2026-05-07 12:04 | 37.97171 | 3.96045 | 30711 ft | 503 kts | 27° |
| 2026-05-07 12:05 | 38.00254 | 3.98185 | 30956 ft | 506 kts | 27° |
| 2026-05-07 12:05 | 38.03347 | 4.00334 | 31212 ft | 509 kts | 27° |
| 2026-05-07 12:05 | 38.06459 | 4.02502 | 31463 ft | 511 kts | 27° |
| 2026-05-07 12:05 | 38.09576 | 4.04673 | 31776 ft | 512 kts | 27° |
| 2026-05-07 12:06 | 38.12698 | 4.06850 | 32134 ft | 512 kts | 27° |
| 2026-05-07 12:06 | 38.15825 | 4.09030 | 32445 ft | 513 kts | 27° |
| 2026-05-07 12:06 | 38.18953 | 4.11209 | 32759 ft | 513 kts | 27° |
| 2026-05-07 12:06 | 38.22088 | 4.13392 | 33089 ft | 514 kts | 27° |
| 2026-05-07 12:07 | 38.25226 | 4.15581 | 33424 ft | 514 kts | 27° |
| 2026-05-07 12:07 | 38.28361 | 4.17767 | 33758 ft | 515 kts | 26° |
| 2026-05-07 12:07 | 38.31499 | 4.19962 | 34036 ft | 515 kts | 26° |
| 2026-05-07 12:07 | 38.34641 | 4.22166 | 34306 ft | 516 kts | 26° |
| 2026-05-07 12:08 | 38.37782 | 4.24377 | 34585 ft | 516 kts | 26° |
| 2026-05-07 12:08 | 38.40920 | 4.26589 | 34863 ft | 515 kts | 26° |
| 2026-05-07 12:08 | 38.44058 | 4.28799 | 35137 ft | 515 kts | 26° |
| 2026-05-07 12:08 | 38.47197 | 4.31007 | 35406 ft | 515 kts | 26° |
| 2026-05-07 12:09 | 38.50329 | 4.33212 | 35674 ft | 515 kts | 26° |
| 2026-05-07 12:09 | 38.53464 | 4.35424 | 35936 ft | 514 kts | 25° |
| 2026-05-07 12:09 | 38.56591 | 4.37633 | 36186 ft | 514 kts | 25° |
| 2026-05-07 12:09 | 38.59716 | 4.39841 | 36492 ft | 513 kts | 25° |
| 2026-05-07 12:10 | 38.62836 | 4.42047 | 36768 ft | 511 kts | 25° |
| 2026-05-07 12:10 | 38.65948 | 4.44246 | 37024 ft | 511 kts | 25° |
| 2026-05-07 12:10 | 38.69055 | 4.46442 | 37268 ft | 510 kts | 25° |
| 2026-05-07 12:10 | 38.72160 | 4.48637 | 37493 ft | 510 kts | 25° |
| 2026-05-07 12:11 | 38.75262 | 4.50835 | 37722 ft | 509 kts | 25° |
| 2026-05-07 12:11 | 38.78363 | 4.53039 | 37908 ft | 510 kts | 25° |
| 2026-05-07 12:11 | 38.81453 | 4.55243 | 37970 ft | 508 kts | 25° |
| 2026-05-07 12:12 | 38.87568 | 4.59615 | 37955 ft | 507 kts | 25° |
| 2026-05-07 12:12 | 38.93747 | 4.64023 | 37939 ft | 508 kts | 25° |
| 2026-05-07 12:13 | 38.99946 | 4.68377 | 37943 ft | 506 kts | 20° |
| 2026-05-07 12:13 | 39.06424 | 4.71750 | 37954 ft | 500 kts | 16° |
| 2026-05-07 12:14 | 39.12897 | 4.75007 | 37967 ft | 499 kts | 16° |
| 2026-05-07 12:14 | 39.19371 | 4.78261 | 37969 ft | 499 kts | 16° |
| 2026-05-07 12:15 | 39.25835 | 4.81533 | 37992 ft | 499 kts | 16° |
| 2026-05-07 12:15 | 39.32296 | 4.84825 | 37991 ft | 499 kts | 16° |
| 2026-05-07 12:16 | 39.38748 | 4.88107 | 37985 ft | 498 kts | 16° |
| 2026-05-07 12:16 | 39.45192 | 4.91390 | 37983 ft | 498 kts | 16° |
| 2026-05-07 12:17 | 39.51626 | 4.94672 | 37986 ft | 495 kts | 17° |
| 2026-05-07 12:17 | 39.56948 | 4.97399 | 37959 ft | 495 kts | 16° |
| 2026-05-07 12:18 | 39.63354 | 5.00689 | 37966 ft | 495 kts | 16° |
| 2026-05-07 12:18 | 39.69768 | 5.03975 | 38002 ft | 496 kts | 16° |
| 2026-05-07 12:19 | 39.76185 | 5.07266 | 38006 ft | 495 kts | 16° |
| 2026-05-07 12:19 | 39.82589 | 5.10563 | 38002 ft | 495 kts | 16° |
| 2026-05-07 12:20 | 39.88981 | 5.13860 | 37998 ft | 494 kts | 16° |
| 2026-05-07 12:20 | 39.95378 | 5.17172 | 38020 ft | 494 kts | 17° |
| 2026-05-07 12:21 | 40.01755 | 5.20489 | 38010 ft | 493 kts | 17° |
| 2026-05-07 12:21 | 40.08124 | 5.23798 | 38007 ft | 492 kts | 17° |
| 2026-05-07 12:22 | 40.14489 | 5.27099 | 38033 ft | 492 kts | 17° |
| 2026-05-07 12:22 | 40.20842 | 5.30414 | 38018 ft | 491 kts | 17° |
| 2026-05-07 12:23 | 40.27182 | 5.33726 | 37992 ft | 490 kts | 16° |
| 2026-05-07 12:23 | 40.33522 | 5.37043 | 37994 ft | 491 kts | 16° |
| 2026-05-07 12:24 | 40.39800 | 5.40573 | 38016 ft | 495 kts | 24° |
| 2026-05-07 12:24 | 40.45852 | 5.44890 | 38016 ft | 495 kts | 24° |
| 2026-05-07 12:25 | 40.51899 | 5.49209 | 38011 ft | 495 kts | 24° |
| 2026-05-07 12:25 | 40.57909 | 5.53501 | 38011 ft | 495 kts | 24° |
| 2026-05-07 12:26 | 40.63949 | 5.57833 | 38016 ft | 495 kts | 24° |
| 2026-05-07 12:26 | 40.69993 | 5.62181 | 38015 ft | 495 kts | 24° |
| 2026-05-07 12:27 | 40.76038 | 5.66526 | 38015 ft | 495 kts | 24° |
| 2026-05-07 12:27 | 40.82077 | 5.70873 | 38038 ft | 494 kts | 25° |
| 2026-05-07 12:28 | 40.88108 | 5.75226 | 38015 ft | 494 kts | 24° |
| 2026-05-07 12:28 | 40.94133 | 5.79596 | 38023 ft | 494 kts | 24° |
| 2026-05-07 12:29 | 41.00154 | 5.83962 | 38039 ft | 493 kts | 25° |
| 2026-05-07 12:29 | 41.06169 | 5.88336 | 38030 ft | 493 kts | 25° |
| 2026-05-07 12:30 | 41.12178 | 5.92709 | 38031 ft | 492 kts | 25° |
| 2026-05-07 12:30 | 41.18180 | 5.97093 | 38023 ft | 492 kts | 25° |
| 2026-05-07 12:31 | 41.24176 | 6.01484 | 38051 ft | 492 kts | 25° |
| 2026-05-07 12:31 | 41.30160 | 6.05878 | 38039 ft | 491 kts | 25° |
| 2026-05-07 12:32 | 41.36134 | 6.10268 | 38015 ft | 491 kts | 24° |
| 2026-05-07 12:32 | 41.42110 | 6.14667 | 38046 ft | 490 kts | 25° |
| 2026-05-07 12:33 | 41.51056 | 6.21269 | 38038 ft | 489 kts | 25° |
| 2026-05-07 12:33 | 41.56968 | 6.25645 | 38035 ft | 489 kts | 25° |
| 2026-05-07 12:34 | 41.62916 | 6.30055 | 38052 ft | 489 kts | 25° |
| 2026-05-07 12:34 | 41.68891 | 6.34507 | 38040 ft | 488 kts | 25° |
| 2026-05-07 12:35 | 41.74783 | 6.38896 | 38034 ft | 488 kts | 25° |
| 2026-05-07 12:35 | 41.80711 | 6.43315 | 38035 ft | 487 kts | 25° |
| 2026-05-07 12:36 | 41.86630 | 6.47746 | 38029 ft | 487 kts | 25° |
| 2026-05-07 12:36 | 41.92539 | 6.52184 | 38033 ft | 486 kts | 25° |
| 2026-05-07 12:37 | 41.98443 | 6.56609 | 38031 ft | 486 kts | 25° |
| 2026-05-07 12:37 | 42.04347 | 6.61042 | 38045 ft | 486 kts | 25° |
| 2026-05-07 12:38 | 42.10238 | 6.65502 | 38039 ft | 485 kts | 25° |
| 2026-05-07 12:38 | 42.16220 | 6.69622 | 38031 ft | 478 kts | 14° |
| 2026-05-07 12:39 | 42.22561 | 6.72085 | 38059 ft | 474 kts | 9° |
| 2026-05-07 12:39 | 42.28917 | 6.74427 | 38041 ft | 473 kts | 10° |
| 2026-05-07 12:40 | 42.35261 | 6.76785 | 38033 ft | 473 kts | 10° |
| 2026-05-07 12:40 | 42.41609 | 6.79142 | 38052 ft | 473 kts | 10° |
| 2026-05-07 12:41 | 42.47944 | 6.81490 | 38042 ft | 472 kts | 10° |
| 2026-05-07 12:41 | 42.54276 | 6.83841 | 38033 ft | 471 kts | 10° |
| 2026-05-07 12:42 | 42.60595 | 6.86196 | 38024 ft | 471 kts | 10° |
| 2026-05-07 12:42 | 42.66909 | 6.88556 | 38025 ft | 470 kts | 10° |
| 2026-05-07 12:43 | 42.73220 | 6.90920 | 38025 ft | 470 kts | 10° |
| 2026-05-07 12:43 | 42.79526 | 6.93284 | 38024 ft | 470 kts | 10° |
| 2026-05-07 12:44 | 42.85830 | 6.95652 | 38032 ft | 470 kts | 10° |
| 2026-05-07 12:44 | 42.92126 | 6.98022 | 38023 ft | 469 kts | 10° |
| 2026-05-07 12:45 | 42.98420 | 7.00406 | 38018 ft | 469 kts | 10° |
| 2026-05-07 12:45 | 43.04705 | 7.02793 | 38032 ft | 469 kts | 10° |
| 2026-05-07 12:46 | 43.10990 | 7.05171 | 38020 ft | 468 kts | 10° |
| 2026-05-07 12:46 | 43.17229 | 7.07756 | 38010 ft | 472 kts | 18° |
| 2026-05-07 12:47 | 43.23202 | 7.11587 | 38024 ft | 474 kts | 21° |
| 2026-05-07 12:47 | 43.29160 | 7.15458 | 38017 ft | 474 kts | 21° |
| 2026-05-07 12:48 | 43.35112 | 7.19332 | 38019 ft | 473 kts | 21° |
| 2026-05-07 12:48 | 43.41058 | 7.23215 | 38044 ft | 473 kts | 21° |
| 2026-05-07 12:49 | 43.46957 | 7.27082 | 38026 ft | 473 kts | 21° |
| 2026-05-07 12:49 | 43.52889 | 7.30981 | 38022 ft | 472 kts | 21° |
| 2026-05-07 12:50 | 43.58784 | 7.34962 | 38016 ft | 474 kts | 27° |
| 2026-05-07 12:50 | 43.63928 | 7.40719 | 38030 ft | 480 kts | 47° |
| 2026-05-07 12:51 | 43.67914 | 7.48136 | 38022 ft | 481 kts | 53° |